Time;durP1;ratioP1;P1;durP2;ratioP2;P2;SDS_P1;SDS_P2;PMS_P1;PMS_P2;Temp;Humidity;BMP_temperature;BMP_pressure;BME280_temperature;BME280_humidity;BME280_pressure;Samples;Min_cycle;Max_cycle;Signal;HPM_P1;HPM_P2
2022/04/22 00:00:00;;;;;;;8.05;7.35;;;;;;;;;;5065539;28;20056;-78
2022/04/22 00:02:28;;;;;;;7.57;6.88;;;;;;;;;;5044262;28;20040;-79
2022/04/22 00:04:55;;;;;;;12.20;7.72;;;;;;;;;;5042362;28;20049;-79
2022/04/22 00:07:22;;;;;;;7.53;6.82;;;;;;;;;;5043834;28;20060;-78
2022/04/22 00:09:50;;;;;;;7.57;6.60;;;;;;;;;;5043820;28;20505;-79
2022/04/22 00:12:17;;;;;;;6.95;6.35;;;;;;;;;;5043933;28;20041;-78
2022/04/22 00:14:44;;;;;;;7.70;7.00;;;;;;;;;;5043541;28;20409;-79
2022/04/22 00:17:12;;;;;;;6.43;5.82;;;;;;;;;;5044212;28;20060;-78
2022/04/22 00:19:39;;;;;;;7.05;5.85;;;;;;;;;;5045731;28;20077;-78
2022/04/22 00:22:06;;;;;;;5.57;5.07;;;;;;;;;;5042756;28;20037;-78
2022/04/22 00:24:34;;;;;;;6.22;5.45;;;;;;;;;;5043622;28;20056;-78
2022/04/22 00:27:01;;;;;;;6.80;5.90;;;;;;;;;;5043435;28;20053;-78
2022/04/22 00:29:29;;;;;;;5.68;5.18;;;;;;;;;;5044604;28;20559;-78
2022/04/22 00:31:56;;;;;;;6.45;5.55;;;;;;;;;;5046035;28;20678;-78
2022/04/22 00:34:24;;;;;;;6.05;5.55;;;;;;;;;;5042012;28;20099;-78
2022/04/22 00:36:51;;;;;;;7.03;6.32;;;;;;;;;;5042251;28;20037;-78
2022/04/22 00:39:18;;;;;;;5.97;5.47;;;;;;;;;;5045823;28;20041;-78
2022/04/22 00:41:46;;;;;;;5.35;4.82;;;;;;;;;;5044546;28;20044;-78
2022/04/22 00:44:13;;;;;;;6.30;5.80;;;;;;;;;;5046215;28;20428;-78
2022/04/22 00:46:41;;;;;;;5.50;5.05;;;;;;;;;;5046946;28;20608;-78
2022/04/22 00:49:08;;;;;;;5.78;5.28;;;;;;;;;;5045242;28;20044;-78
2022/04/22 00:51:36;;;;;;;6.50;5.90;;;;;;;;;;5044699;28;20047;-78
2022/04/22 00:54:03;;;;;;;7.40;6.05;;;;;;;;;;5042949;28;20043;-78
2022/04/22 00:56:31;;;;;;;7.57;6.97;;;;;;;;;;5045419;28;20569;-78
2022/04/22 00:58:59;;;;;;;8.50;7.70;;;;;;;;;;5046417;28;20037;-78
2022/04/22 01:01:26;;;;;;;7.93;7.22;;;;;;;;;;5042031;28;20041;-78
2022/04/22 01:12:12;;;;;;;6.80;6.20;;;;;;;;;;5046193;28;20048;-77
2022/04/22 01:14:41;;;;;;;6.97;6.38;;;;;;;;;;5047153;28;20037;-78
2022/04/22 01:17:09;;;;;;;7.53;6.72;;;;;;;;;;5042845;28;20045;-78
2022/04/22 01:19:36;;;;;;;8.63;7.82;;;;;;;;;;5046929;28;20055;-78
2022/04/22 01:22:04;;;;;;;7.07;6.47;;;;;;;;;;5045387;28;20037;-78
2022/04/22 01:24:31;;;;;;;8.57;7.78;;;;;;;;;;5045602;28;20048;-78
2022/04/22 01:26:59;;;;;;;8.82;8.13;;;;;;;;;;5044623;28;20094;-78
2022/04/22 01:29:26;;;;;;;9.40;8.60;;;;;;;;;;5045531;28;20062;-78
2022/04/22 01:31:54;;;;;;;8.75;8.05;;;;;;;;;;5045611;28;20103;-78
2022/04/22 01:34:21;;;;;;;7.70;6.95;;;;;;;;;;5043981;28;20040;-78
2022/04/22 01:36:49;;;;;;;7.32;6.35;;;;;;;;;;5042373;28;20095;-78
2022/04/22 01:39:16;;;;;;;7.28;6.68;;;;;;;;;;5043623;28;20040;-78
2022/04/22 01:41:47;;;;;;;7.38;6.72;;;;;;;;;;5062297;22;20045;-89
2022/04/22 01:44:29;;;;;;;6.90;6.30;;;;;;;;;;5029292;28;20055;-89
2022/04/22 01:47:23;;;;;;;7.88;7.28;;;;;;;;;;5035107;28;20049;-88
2022/04/22 01:49:57;;;;;;;7.28;6.68;;;;;;;;;;5023322;28;20139;-89
2022/04/22 01:52:30;;;;;;;7.72;7.03;;;;;;;;;;5020920;28;20065;-89
2022/04/22 01:55:03;;;;;;;7.50;6.90;;;;;;;;;;5052086;28;20466;-89
2022/04/22 01:57:42;;;;;;;7.18;6.53;;;;;;;;;;4996170;28;20076;-89
2022/04/22 02:00:38;;;;;;;7.88;7.13;;;;;;;;;;5031718;28;20045;-89
2022/04/22 02:03:06;;;;;;;8.10;7.35;;;;;;;;;;5013371;28;20051;-88
2022/04/22 02:05:51;;;;;;;7.28;6.68;;;;;;;;;;5017590;28;20044;-89
2022/04/22 02:08:29;;;;;;;7.68;6.88;;;;;;;;;;5017902;28;20137;-89
2022/04/22 02:11:02;;;;;;;7.53;6.82;;;;;;;;;;5028648;28;20056;-89
2022/04/22 02:13:41;;;;;;;8.70;7.90;;;;;;;;;;5013322;28;20052;-89
2022/04/22 02:16:12;;;;;;;8.43;7.60;;;;;;;;;;5028261;28;20053;-89
2022/04/22 02:18:44;;;;;;;8.07;6.82;;;;;;;;;;5014651;28;20037;-88
2022/04/22 02:21:21;;;;;;;6.95;6.35;;;;;;;;;;5015623;28;20044;-89
2022/04/22 02:23:52;;;;;;;7.43;6.75;;;;;;;;;;5030132;28;20049;-88
2022/04/22 02:26:28;;;;;;;5.95;5.53;;;;;;;;;;5008693;28;20493;-86
2022/04/22 02:29:03;;;;;;;8.20;7.50;;;;;;;;;;5034735;28;20052;-89
2022/04/22 02:31:37;;;;;;;8.73;7.93;;;;;;;;;;5022562;28;20074;-88
2022/04/22 02:34:11;;;;;;;8.02;7.22;;;;;;;;;;5011812;28;20091;-88
2022/04/22 02:36:44;;;;;;;7.10;6.50;;;;;;;;;;5027831;28;20056;-88
2022/04/22 02:39:23;;;;;;;8.82;7.32;;;;;;;;;;5028557;28;20060;-87
2022/04/22 02:47:47;;;;;;;7.03;6.43;;;;;;;;;;5024709;28;20056;-89
2022/04/22 02:50:30;;;;;;;7.05;6.45;;;;;;;;;;5027450;28;20049;-89
2022/04/22 02:53:00;;;;;;;8.02;7.32;;;;;;;;;;4997102;28;20041;-88
2022/04/22 02:55:31;;;;;;;7.55;6.88;;;;;;;;;;5028519;28;20049;-89
2022/04/22 02:58:07;;;;;;;8.88;7.95;;;;;;;;;;5000985;28;20664;-88
2022/04/22 03:00:38;;;;;;;8.77;7.90;;;;;;;;;;5007009;28;20148;-89
2022/04/22 03:03:18;;;;;;;8.90;7.35;;;;;;;;;;5025469;28;20081;-89
2022/04/22 03:05:56;;;;;;;9.73;7.78;;;;;;;;;;4994113;28;20041;-88
2022/04/22 03:08:26;;;;;;;8.77;7.88;;;;;;;;;;5038471;28;20546;-86
2022/04/22 03:10:55;;;;;;;10.93;8.00;;;;;;;;;;5012396;28;20041;-88
2022/04/22 03:13:25;;;;;;;8.20;7.40;;;;;;;;;;5002619;28;20319;-89
2022/04/22 03:15:53;;;;;;;8.57;7.35;;;;;;;;;;5010138;28;20077;-89
2022/04/22 03:18:21;;;;;;;7.57;6.88;;;;;;;;;;5026557;28;20739;-89
2022/04/22 03:20:52;;;;;;;8.30;7.50;;;;;;;;;;5029591;28;20053;-89
2022/04/22 03:23:30;;;;;;;6.78;6.18;;;;;;;;;;5006663;28;20481;-89
2022/04/22 03:25:58;;;;;;;7.75;7.05;;;;;;;;;;5027336;28;20056;-88
2022/04/22 03:29:06;;;;;;;7.80;7.10;;;;;;;;;;5017022;28;20056;-89
2022/04/22 03:31:46;;;;;;;9.75;6.85;;;;;;;;;;5017409;28;20051;-89
2022/04/22 03:34:35;;;;;;;9.50;7.40;;;;;;;;;;5015822;28;20130;-89
2022/04/22 03:37:10;;;;;;;8.05;7.35;;;;;;;;;;5038677;28;20072;-88
2022/04/22 03:39:37;;;;;;;8.27;7.50;;;;;;;;;;5048500;28;20025;-87
2022/04/22 03:42:06;;;;;;;8.02;7.28;;;;;;;;;;5054382;28;20032;-87
2022/04/22 03:44:33;;;;;;;7.57;6.88;;;;;;;;;;5037445;28;20041;-88
2022/04/22 03:47:08;;;;;;;8.85;7.32;;;;;;;;;;5019329;28;20040;-89
2022/04/22 03:49:36;;;;;;;8.32;7.63;;;;;;;;;;5016444;28;20045;-90
2022/04/22 03:52:06;;;;;;;8.00;7.30;;;;;;;;;;5031685;28;20516;-89
2022/04/22 03:54:37;;;;;;;11.32;8.10;;;;;;;;;;5012940;28;20037;-89
2022/04/22 04:00:11;;;;;;;9.60;8.57;;;;;;;;;;5017840;28;20084;-89
2022/04/22 04:02:58;;;;;;;8.32;7.63;;;;;;;;;;5014056;28;20144;-88
2022/04/22 04:05:37;;;;;;;8.35;7.55;;;;;;;;;;5029306;28;20048;-89
2022/04/22 04:08:16;;;;;;;11.55;10.48;;;;;;;;;;5015708;28;20057;-89
2022/04/22 04:16:56;;;;;;;13.27;12.07;;;;;;;;;;5026807;28;20044;-88
2022/04/22 04:24:57;;;;;;;11.43;10.25;;;;;;;;;;5077334;28;20039;-81
2022/04/22 04:27:25;;;;;;;11.77;10.57;;;;;;;;;;5072746;28;20059;-82
2022/04/22 04:29:52;;;;;;;12.70;11.48;;;;;;;;;;5068259;28;20127;-82
2022/04/22 04:32:19;;;;;;;9.18;8.38;;;;;;;;;;5070268;28;20773;-83
2022/04/22 04:34:47;;;;;;;7.90;7.18;;;;;;;;;;5079946;28;20058;-83
2022/04/22 04:37:14;;;;;;;9.70;8.70;;;;;;;;;;5078298;28;20048;-83
2022/04/22 04:39:42;;;;;;;9.63;8.73;;;;;;;;;;5103314;28;20029;-83
2022/04/22 04:42:09;;;;;;;9.00;8.20;;;;;;;;;;5104307;28;20030;-84
2022/04/22 04:44:37;;;;;;;9.45;8.52;;;;;;;;;;5105645;28;20058;-82
2022/04/22 04:47:05;;;;;;;9.43;8.52;;;;;;;;;;5101943;28;20036;-83
2022/04/22 04:49:34;;;;;;;10.10;9.10;;;;;;;;;;5106636;28;20080;-83
2022/04/22 04:52:02;;;;;;;10.43;8.63;;;;;;;;;;5090233;28;20074;-81
2022/04/22 04:54:29;;;;;;;11.27;9.18;;;;;;;;;;5098070;27;20051;-83
2022/04/22 04:56:56;;;;;;;11.35;9.80;;;;;;;;;;5079714;28;20037;-84
2022/04/22 04:59:24;;;;;;;12.43;8.65;;;;;;;;;;5051258;28;20574;-84
2022/04/22 05:01:51;;;;;;;10.10;9.20;;;;;;;;;;5053267;28;20129;-83
2022/04/22 05:04:19;;;;;;;13.10;9.23;;;;;;;;;;5066910;28;20171;-84
2022/04/22 05:06:46;;;;;;;18.77;10.07;;;;;;;;;;5068169;28;20036;-84
2022/04/22 05:09:15;;;;;;;16.83;11.32;;;;;;;;;;5049745;28;20052;-84
2022/04/22 05:11:42;;;;;;;17.25;10.52;;;;;;;;;;5069004;28;20104;-84
2022/04/22 05:14:09;;;;;;;14.60;9.52;;;;;;;;;;5057065;28;20040;-84
2022/04/22 05:16:37;;;;;;;10.43;9.43;;;;;;;;;;5054743;28;20044;-84
2022/04/22 05:19:04;;;;;;;10.20;8.70;;;;;;;;;;5070537;28;20032;-86
2022/04/22 05:21:32;;;;;;;9.38;8.48;;;;;;;;;;5073607;28;20044;-83
2022/04/22 05:23:59;;;;;;;9.55;8.65;;;;;;;;;;5073201;28;20118;-84
2022/04/22 05:26:27;;;;;;;9.90;8.77;;;;;;;;;;5075432;28;20047;-84
2022/04/22 05:28:54;;;;;;;11.77;9.23;;;;;;;;;;5074635;28;20054;-84
2022/04/22 05:34:07;;;;;;;11.82;8.95;;;;;;;;;;5080375;28;20071;-84
2022/04/22 05:36:35;;;;;;;9.90;8.85;;;;;;;;;;5064440;28;20104;-84
2022/04/22 05:39:07;;;;;;;10.15;8.98;;;;;;;;;;5081624;28;20100;-84
2022/04/22 05:41:35;;;;;;;10.35;8.50;;;;;;;;;;5050223;28;20047;-82
2022/04/22 05:44:04;;;;;;;11.98;10.18;;;;;;;;;;5080476;28;20052;-83
2022/04/22 05:46:31;;;;;;;11.90;8.98;;;;;;;;;;5054171;28;20056;-83
2022/04/22 05:48:59;;;;;;;9.95;9.00;;;;;;;;;;5074646;28;20068;-84
2022/04/22 05:51:26;;;;;;;10.32;9.32;;;;;;;;;;5067847;28;20053;-82
2022/04/22 05:53:54;;;;;;;13.55;10.82;;;;;;;;;;5053174;28;20063;-83
2022/04/22 05:56:21;;;;;;;13.27;10.18;;;;;;;;;;5067977;28;20036;-83
2022/04/22 05:58:48;;;;;;;11.93;9.65;;;;;;;;;;5069941;28;20057;-83
2022/04/22 06:01:16;;;;;;;9.85;8.93;;;;;;;;;;5069386;28;20048;-83
2022/04/22 06:03:43;;;;;;;10.93;9.82;;;;;;;;;;5069274;28;20044;-82
2022/04/22 06:06:10;;;;;;;10.32;9.32;;;;;;;;;;5051449;28;20041;-84
2022/04/22 06:11:24;;;;;;;11.63;10.20;;;;;;;;;;5062327;28;20032;-84
2022/04/22 06:13:51;;;;;;;11.00;9.38;;;;;;;;;;5063242;28;20047;-83
2022/04/22 06:16:18;;;;;;;11.60;10.13;;;;;;;;;;5059995;28;20044;-84
2022/04/22 06:18:46;;;;;;;9.07;8.18;;;;;;;;;;5050277;28;20059;-84
2022/04/22 06:21:13;;;;;;;10.98;9.35;;;;;;;;;;5069756;28;20052;-83
2022/04/22 06:23:41;;;;;;;9.40;8.43;;;;;;;;;;5049274;28;20052;-83
2022/04/22 06:26:08;;;;;;;10.05;9.15;;;;;;;;;;5064973;28;20048;-80
2022/04/22 06:28:35;;;;;;;10.48;9.38;;;;;;;;;;5066760;28;20794;-82
2022/04/22 06:31:03;;;;;;;10.27;9.10;;;;;;;;;;5070210;28;20090;-83
2022/04/22 06:33:31;;;;;;;11.20;9.60;;;;;;;;;;5069913;28;20530;-84
2022/04/22 06:36:00;;;;;;;9.45;8.60;;;;;;;;;;5052236;28;20045;-84
2022/04/22 06:38:28;;;;;;;9.93;8.93;;;;;;;;;;5032446;28;20048;-82
2022/04/22 06:46:27;;;;;;;10.90;9.85;;;;;;;;;;5063621;28;20037;-84
2022/04/22 06:48:55;;;;;;;16.35;10.48;;;;;;;;;;5038428;28;20127;-82
2022/04/22 06:51:23;;;;;;;14.43;9.80;;;;;;;;;;5064243;28;20071;-81
2022/04/22 06:53:52;;;;;;;12.25;10.00;;;;;;;;;;5065741;28;20056;-81
2022/04/22 06:56:22;;;;;;;10.73;9.63;;;;;;;;;;5060829;28;20044;-80
2022/04/22 06:58:52;;;;;;;10.57;9.57;;;;;;;;;;5090519;28;20052;-79
2022/04/22 07:01:19;;;;;;;12.23;10.13;;;;;;;;;;5083544;28;20032;-82
2022/04/22 07:04:14;;;;;;;11.85;10.27;;;;;;;;;;5069104;28;20044;-85
2022/04/22 07:06:42;;;;;;;11.20;9.43;;;;;;;;;;5060165;28;20044;-83
2022/04/22 07:09:10;;;;;;;10.80;9.70;;;;;;;;;;5078583;28;20054;-80
2022/04/22 07:11:38;;;;;;;10.30;9.40;;;;;;;;;;5066758;28;20075;-81
2022/04/22 07:14:06;;;;;;;11.18;10.07;;;;;;;;;;5063344;28;20192;-82
2022/04/22 07:16:33;;;;;;;11.38;9.93;;;;;;;;;;5066004;28;20074;-82
2022/04/22 07:19:01;;;;;;;10.52;9.38;;;;;;;;;;5070449;28;20040;-83
2022/04/22 07:21:28;;;;;;;10.48;9.48;;;;;;;;;;5063603;28;20040;-83
2022/04/22 07:23:58;;;;;;;11.65;9.75;;;;;;;;;;5050071;28;20381;-84
2022/04/22 07:26:26;;;;;;;12.02;9.80;;;;;;;;;;5049737;28;20055;-83
2022/04/22 07:28:57;;;;;;;12.90;9.32;;;;;;;;;;5048139;28;20048;-82
2022/04/22 07:31:24;;;;;;;11.05;9.60;;;;;;;;;;5066506;28;20095;-82
2022/04/22 07:33:53;;;;;;;10.98;9.82;;;;;;;;;;5069375;28;20032;-82
2022/04/22 07:36:20;;;;;;;16.55;9.70;;;;;;;;;;5026887;28;20117;-85
2022/04/22 07:38:48;;;;;;;11.32;9.52;;;;;;;;;;5065808;28;20083;-83
2022/04/22 07:41:18;;;;;;;10.30;9.30;;;;;;;;;;5063004;28;20033;-84
2022/04/22 07:46:57;;;;;;;10.13;9.15;;;;;;;;;;5061826;28;20045;-86
2022/04/22 07:49:26;;;;;;;11.60;9.45;;;;;;;;;;5051361;28;20079;-83
2022/04/22 07:51:54;;;;;;;15.35;9.43;;;;;;;;;;5051151;28;20064;-84
2022/04/22 07:54:26;;;;;;;11.60;9.00;;;;;;;;;;5059808;28;20041;-82
2022/04/22 07:56:53;;;;;;;9.85;8.95;;;;;;;;;;5065218;28;20037;-82
2022/04/22 07:59:22;;;;;;;8.48;7.78;;;;;;;;;;5048972;28;20523;-84
2022/04/22 08:01:49;;;;;;;9.90;8.90;;;;;;;;;;5043200;28;20119;-83
2022/04/22 08:04:16;;;;;;;8.75;7.85;;;;;;;;;;5063770;28;20048;-82
2022/04/22 08:06:44;;;;;;;9.93;8.90;;;;;;;;;;5049508;28;20300;-83
2022/04/22 08:09:31;;;;;;;8.85;7.90;;;;;;;;;;5045540;28;20044;-83
2022/04/22 08:12:00;;;;;;;9.25;8.35;;;;;;;;;;5051603;28;20041;-82
2022/04/22 08:14:28;;;;;;;9.57;7.75;;;;;;;;;;5066747;28;20040;-83
2022/04/22 08:16:55;;;;;;;8.45;7.68;;;;;;;;;;5068587;28;20040;-82
2022/04/22 08:19:23;;;;;;;10.20;6.75;;;;;;;;;;5068017;28;20040;-83
2022/04/22 08:21:50;;;;;;;7.50;6.90;;;;;;;;;;5045079;28;20139;-82
2022/04/22 08:24:19;;;;;;;7.35;6.65;;;;;;;;;;5061071;28;20047;-83
2022/04/22 08:26:49;;;;;;;6.38;5.78;;;;;;;;;;5045379;28;20488;-82
2022/04/22 08:29:22;;;;;;;5.53;5.03;;;;;;;;;;5067322;28;20045;-85
2022/04/22 08:31:52;;;;;;;4.95;4.55;;;;;;;;;;5067947;28;20109;-83
2022/04/22 08:34:20;;;;;;;4.93;4.53;;;;;;;;;;5063846;28;20063;-82
2022/04/22 08:36:47;;;;;;;5.68;5.18;;;;;;;;;;5065496;28;20100;-82
2022/04/22 08:39:16;;;;;;;6.55;5.95;;;;;;;;;;5066104;28;20561;-81
2022/04/22 08:41:44;;;;;;;5.60;5.10;;;;;;;;;;5058432;28;20040;-82
2022/04/22 08:44:14;;;;;;;5.80;5.38;;;;;;;;;;5064086;28;20557;-82
2022/04/22 08:52:15;;;;;;;5.70;5.20;;;;;;;;;;5083742;28;20055;-83
2022/04/22 08:54:45;;;;;;;5.53;5.03;;;;;;;;;;5062900;28;20032;-83
2022/04/22 08:57:13;;;;;;;5.80;5.30;;;;;;;;;;5066996;28;20569;-83
2022/04/22 08:59:43;;;;;;;6.18;5.68;;;;;;;;;;5053507;28;20496;-83
2022/04/22 09:02:12;;;;;;;5.90;5.35;;;;;;;;;;5065714;28;20564;-83
2022/04/22 09:04:39;;;;;;;5.68;5.18;;;;;;;;;;5066271;28;20056;-83
2022/04/22 09:07:10;;;;;;;5.68;5.18;;;;;;;;;;5072790;28;20051;-83
2022/04/22 09:09:39;;;;;;;6.80;6.13;;;;;;;;;;5068972;28;20124;-83
2022/04/22 09:12:11;;;;;;;6.07;5.43;;;;;;;;;;5071425;28;20037;-83
2022/04/22 09:14:49;;;;;;;5.00;4.60;;;;;;;;;;5065230;28;20044;-83
2022/04/22 09:17:26;;;;;;;5.50;5.10;;;;;;;;;;5065135;28;20049;-84
2022/04/22 09:19:56;;;;;;;6.07;5.45;;;;;;;;;;5060266;28;20139;-83
2022/04/22 09:22:24;;;;;;;5.57;5.07;;;;;;;;;;5060617;28;20052;-83
2022/04/22 09:24:53;;;;;;;7.35;5.20;;;;;;;;;;5068581;28;20045;-82
2022/04/22 09:27:30;;;;;;;5.30;4.80;;;;;;;;;;5068225;28;20334;-82
2022/04/22 09:29:58;;;;;;;5.70;5.10;;;;;;;;;;5051269;28;20140;-82
2022/04/22 09:32:26;;;;;;;6.18;5.68;;;;;;;;;;5067467;28;20458;-82
2022/04/22 09:34:58;;;;;;;5.88;5.38;;;;;;;;;;5067475;28;20040;-83
2022/04/22 09:43:00;;;;;;;6.22;5.63;;;;;;;;;;5067847;28;20462;-83
2022/04/22 09:45:35;;;;;;;5.72;5.22;;;;;;;;;;5069879;28;20041;-83
2022/04/22 09:48:11;;;;;;;6.30;5.70;;;;;;;;;;5067951;28;21274;-82
2022/04/22 09:50:52;;;;;;;5.35;4.95;;;;;;;;;;5075783;28;20037;-81
2022/04/22 09:53:38;;;;;;;6.47;5.20;;;;;;;;;;5078274;28;20535;-82
2022/04/22 09:56:06;;;;;;;6.25;5.72;;;;;;;;;;5075149;28;20064;-83
2022/04/22 09:58:36;;;;;;;7.47;5.45;;;;;;;;;;5035144;28;20060;-81
2022/04/22 10:01:05;;;;;;;5.80;5.30;;;;;;;;;;5076463;28;20060;-82
2022/04/22 10:03:33;;;;;;;5.78;5.28;;;;;;;;;;5072223;28;20128;-81
2022/04/22 10:06:01;;;;;;;7.32;5.80;;;;;;;;;;5070417;28;20498;-83
2022/04/22 10:08:36;;;;;;;6.75;6.05;;;;;;;;;;5061189;28;20186;-82
2022/04/22 10:11:05;;;;;;;7.60;6.78;;;;;;;;;;5081724;28;20055;-81
2022/04/22 10:13:43;;;;;;;6.95;6.40;;;;;;;;;;5071296;28;20044;-82
2022/04/22 10:16:11;;;;;;;7.43;6.75;;;;;;;;;;5033932;28;20072;-82
2022/04/22 10:18:39;;;;;;;9.15;7.00;;;;;;;;;;5048522;28;20563;-83
2022/04/22 10:21:07;;;;;;;8.30;7.50;;;;;;;;;;5058050;28;20639;-83
2022/04/22 10:23:42;;;;;;;8.05;7.35;;;;;;;;;;5048899;28;20048;-84
2022/04/22 10:26:10;;;;;;;8.27;7.47;;;;;;;;;;5063928;28;20050;-84
2022/04/22 10:28:39;;;;;;;7.75;7.15;;;;;;;;;;5042652;28;20049;-83
2022/04/22 10:31:07;;;;;;;10.02;9.13;;;;;;;;;;5059708;28;20408;-84
2022/04/22 10:33:39;;;;;;;13.35;10.13;;;;;;;;;;5028603;28;20045;-82
2022/04/22 10:36:07;;;;;;;11.48;7.75;;;;;;;;;;5054578;28;20090;-84
2022/04/22 10:38:35;;;;;;;10.10;9.10;;;;;;;;;;5045516;28;20043;-83
2022/04/22 10:41:05;;;;;;;8.30;7.60;;;;;;;;;;5047187;28;20647;-84
2022/04/22 10:43:34;;;;;;;10.70;9.63;;;;;;;;;;5060905;28;20055;-82
2022/04/22 10:49:06;;;;;;;9.40;8.50;;;;;;;;;;5059786;28;20157;-82
2022/04/22 10:51:57;;;;;;;8.70;7.82;;;;;;;;;;5068179;28;20055;-84
2022/04/22 10:54:43;;;;;;;8.70;7.90;;;;;;;;;;5050673;28;20044;-82
2022/04/22 10:57:18;;;;;;;9.77;8.70;;;;;;;;;;5062838;28;20060;-83
2022/04/22 10:59:47;;;;;;;14.15;8.98;;;;;;;;;;5063142;28;20052;-83
2022/04/22 11:02:27;;;;;;;10.27;9.32;;;;;;;;;;5062123;28;20062;-83
2022/04/22 11:05:13;;;;;;;9.45;8.65;;;;;;;;;;5048932;28;20054;-83
2022/04/22 11:07:51;;;;;;;9.90;9.00;;;;;;;;;;5035602;28;20118;-86
2022/04/22 11:10:18;;;;;;;5.85;5.32;;;;;;;;;;5054316;28;20575;-83
2022/04/22 11:12:59;;;;;;;7.97;7.28;;;;;;;;;;5042012;28;20483;-83
2022/04/22 11:15:46;;;;;;;7.00;6.40;;;;;;;;;;5062831;28;20040;-83
2022/04/22 11:18:15;;;;;;;10.40;9.43;;;;;;;;;;5058674;28;20835;-83
2022/04/22 11:20:44;;;;;;;8.13;7.22;;;;;;;;;;5026123;28;20052;-83
2022/04/22 11:23:15;;;;;;;8.18;7.47;;;;;;;;;;5059490;28;20086;-83
2022/04/22 11:25:44;;;;;;;7.45;5.90;;;;;;;;;;5066086;28;20071;-82
2022/04/22 11:28:12;;;;;;;6.03;5.55;;;;;;;;;;5060063;28;20053;-84
2022/04/22 11:30:40;;;;;;;6.88;6.28;;;;;;;;;;5059388;28;20132;-83
2022/04/22 11:33:14;;;;;;;7.65;5.50;;;;;;;;;;5062142;28;20755;-83
2022/04/22 11:35:41;;;;;;;6.10;5.53;;;;;;;;;;5013235;28;20044;-82
2022/04/22 11:38:11;;;;;;;5.80;5.30;;;;;;;;;;5063418;28;20141;-83
2022/04/22 11:40:40;;;;;;;6.05;5.55;;;;;;;;;;5053268;28;20032;-83
2022/04/22 11:43:08;;;;;;;6.18;5.57;;;;;;;;;;5060907;28;20523;-83
2022/04/22 11:45:36;;;;;;;6.03;5.53;;;;;;;;;;5059532;28;20151;-83
2022/04/22 11:48:08;;;;;;;6.32;5.80;;;;;;;;;;5053612;28;20041;-88
2022/04/22 11:50:42;;;;;;;5.07;4.67;;;;;;;;;;5055983;28;20056;-84
2022/04/22 11:53:17;;;;;;;5.32;4.93;;;;;;;;;;5062701;28;20086;-84
2022/04/22 11:55:47;;;;;;;4.47;4.10;;;;;;;;;;5059209;28;20043;-84
2022/04/22 11:58:24;;;;;;;4.20;3.85;;;;;;;;;;5062777;22;20064;-76
2022/04/22 12:06:57;;;;;;;3.75;3.45;;;;;;;;;;5071077;28;20155;-76
2022/04/22 12:09:25;;;;;;;4.18;3.88;;;;;;;;;;5072846;28;20048;-76
2022/04/22 12:11:53;;;;;;;3.97;3.67;;;;;;;;;;5063597;28;20044;-76
2022/04/22 12:14:24;;;;;;;4.07;3.78;;;;;;;;;;5052479;28;20501;-76
2022/04/22 12:16:59;;;;;;;4.28;3.97;;;;;;;;;;5068655;28;20055;-76
2022/04/22 12:19:27;;;;;;;4.13;3.83;;;;;;;;;;5071850;28;20032;-75
2022/04/22 12:21:54;;;;;;;4.53;4.05;;;;;;;;;;5075837;28;20119;-75
2022/04/22 12:24:22;;;;;;;4.85;3.95;;;;;;;;;;5066681;28;20072;-76
2022/04/22 12:26:51;;;;;;;4.57;4.15;;;;;;;;;;5072357;28;20079;-76
2022/04/22 12:29:21;;;;;;;3.67;3.38;;;;;;;;;;5066325;28;20079;-75
2022/04/22 12:32:00;;;;;;;4.72;4.30;;;;;;;;;;5050964;28;20045;-76
2022/04/22 12:34:32;;;;;;;4.22;3.83;;;;;;;;;;5056545;28;20048;-76
2022/04/22 12:37:00;;;;;;;;;;;;;;;;;;5075219;28;20044;-76
2022/04/22 12:39:41;;;;;;;2.00;1.90;;;;;;;;;;5058443;28;19924;-77
2022/04/22 12:42:18;;;;;;;1.70;1.60;;;;;;;;;;5082824;28;20468;-78
2022/04/22 12:53:28;;;;;;;1.50;1.40;;;;;;;;;;5077857;28;20044;-77
2022/04/22 12:56:04;;;;;;;1.50;1.40;;;;;;;;;;5064180;28;20036;-78
2022/04/22 12:58:34;;;;;;;1.95;1.88;;;;;;;;;;5077464;28;20496;-78
2022/04/22 13:01:04;;;;;;;1.80;1.70;;;;;;;;;;5077920;28;20055;-77
2022/04/22 13:03:36;;;;;;;1.08;1.00;;;;;;;;;;5074285;28;20050;-78
2022/04/22 13:06:05;;;;;;;1.45;1.42;;;;;;;;;;5075712;28;20056;-77
2022/04/22 13:08:32;;;;;;;1.45;1.40;;;;;;;;;;5078842;28;20461;-77
2022/04/22 13:11:02;;;;;;;2.47;1.15;;;;;;;;;;5078327;28;20502;-77
2022/04/22 13:13:33;;;;;;;1.23;1.23;;;;;;;;;;5077611;28;20449;-78
2022/04/22 13:16:14;;;;;;;3.30;1.58;;;;;;;;;;5043989;28;20052;-78
2022/04/22 13:18:42;;;;;;;1.10;1.10;;;;;;;;;;5079147;28;20244;-78
2022/04/22 13:21:09;;;;;;;2.05;1.42;;;;;;;;;;5080226;28;20140;-78
2022/04/22 13:23:37;;;;;;;1.15;1.13;;;;;;;;;;5077112;28;20971;-78
2022/04/22 13:26:04;;;;;;;8.18;1.60;;;;;;;;;;5066594;28;20135;-77
2022/04/22 13:28:32;;;;;;;3.17;1.52;;;;;;;;;;5076803;28;20040;-78
2022/04/22 13:30:59;;;;;;;1.88;1.30;;;;;;;;;;5058316;28;20048;-77
2022/04/22 13:33:31;;;;;;;2.05;1.30;;;;;;;;;;5077335;28;20050;-77
2022/04/22 13:36:02;;;;;;;1.50;1.40;;;;;;;;;;5058357;28;20498;-77
2022/04/22 13:38:31;;;;;;;2.17;1.40;;;;;;;;;;5042854;28;20047;-78
2022/04/22 13:41:00;;;;;;;0.98;0.95;;;;;;;;;;5076834;28;20035;-77
2022/04/22 13:43:30;;;;;;;1.30;1.30;;;;;;;;;;5060261;22;20048;-78
2022/04/22 13:54:18;;;;;;;1.27;1.23;;;;;;;;;;5058596;28;20076;-77
2022/04/22 13:56:46;;;;;;;1.40;1.30;;;;;;;;;;5041315;28;20479;-76
2022/04/22 13:59:13;;;;;;;1.10;1.10;;;;;;;;;;5042765;28;20052;-77
2022/04/22 14:01:41;;;;;;;1.40;1.30;;;;;;;;;;5057289;28;20117;-78
2022/04/22 14:04:08;;;;;;;1.45;1.40;;;;;;;;;;5008137;28;20048;-77
2022/04/22 14:06:37;;;;;;;1.50;1.40;;;;;;;;;;5025864;28;20044;-76
2022/04/22 14:09:04;;;;;;;1.25;1.23;;;;;;;;;;5057881;28;20670;-76
2022/04/22 14:11:33;;;;;;;1.23;1.23;;;;;;;;;;5055612;28;20048;-76
2022/04/22 14:14:00;;;;;;;1.90;1.80;;;;;;;;;;5057154;28;20048;-76
2022/04/22 14:16:29;;;;;;;1.90;1.80;;;;;;;;;;5037872;28;20046;-76
2022/04/22 14:18:57;;;;;;;1.27;1.27;;;;;;;;;;5056080;28;20084;-78
2022/04/22 14:21:25;;;;;;;1.75;1.65;;;;;;;;;;5036704;28;20181;-78
2022/04/22 14:23:55;;;;;;;1.95;1.73;;;;;;;;;;5032017;28;20044;-77
2022/04/22 14:26:22;;;;;;;2.08;1.98;;;;;;;;;;5029850;28;21522;-77
2022/04/22 14:28:50;;;;;;;2.17;1.70;;;;;;;;;;5044462;28;20048;-77
2022/04/22 14:31:17;;;;;;;1.83;1.73;;;;;;;;;;5022867;28;20045;-77
2022/04/22 14:33:45;;;;;;;1.95;1.85;;;;;;;;;;5008601;28;20086;-77
2022/04/22 14:36:13;;;;;;;1.73;1.65;;;;;;;;;;5025965;28;20049;-77
2022/04/22 14:38:42;;;;;;;1.75;1.65;;;;;;;;;;5029333;28;20159;-76
2022/04/22 14:41:09;;;;;;;1.90;1.80;;;;;;;;;;5044195;28;20051;-77
2022/04/22 14:43:38;;;;;;;2.20;2.10;;;;;;;;;;5044232;28;20069;-77
2022/04/22 14:46:06;;;;;;;1.67;1.58;;;;;;;;;;5047247;28;20044;-77
2022/04/22 14:48:33;;;;;;;2.08;1.98;;;;;;;;;;5046715;28;20049;-77
2022/04/22 14:51:01;;;;;;;2.15;2.05;;;;;;;;;;5045686;28;20071;-77
2022/04/22 14:53:28;;;;;;;1.98;1.88;;;;;;;;;;5047078;28;20127;-76
2022/04/22 14:55:56;;;;;;;2.40;2.20;;;;;;;;;;5042005;28;20041;-77
2022/04/22 14:58:27;;;;;;;2.28;2.13;;;;;;;;;;5025081;28;20041;-77
2022/04/22 15:00:55;;;;;;;2.53;2.00;;;;;;;;;;5026564;28;20040;-77
2022/04/22 15:03:22;;;;;;;2.08;1.98;;;;;;;;;;5045718;28;20464;-78
2022/04/22 15:05:51;;;;;;;2.40;2.20;;;;;;;;;;5040367;28;20091;-77
2022/04/22 15:08:22;;;;;;;2.28;2.17;;;;;;;;;;5029917;28;20095;-76
2022/04/22 15:10:49;;;;;;;2.00;1.95;;;;;;;;;;5022792;28;20110;-77
2022/04/22 15:13:17;;;;;;;2.50;2.40;;;;;;;;;;5021614;28;20048;-77
2022/04/22 15:15:44;;;;;;;2.72;2.42;;;;;;;;;;5016242;28;20213;-76
2022/04/22 15:26:35;;;;;;;2.50;2.40;;;;;;;;;;5036684;28;20459;-77
2022/04/22 15:29:04;;;;;;;3.42;3.22;;;;;;;;;;5044183;28;20044;-76
2022/04/22 15:31:31;;;;;;;3.67;3.15;;;;;;;;;;5038542;28;20052;-77
2022/04/22 15:33:59;;;;;;;3.15;2.95;;;;;;;;;;5042805;28;20045;-77
2022/04/22 15:36:28;;;;;;;2.65;2.55;;;;;;;;;;5035602;28;20040;-76
2022/04/22 15:38:57;;;;;;;2.90;2.70;;;;;;;;;;5046225;28;20036;-76
2022/04/22 15:41:29;;;;;;;3.33;3.10;;;;;;;;;;5043559;28;20636;-76
2022/04/22 15:43:56;;;;;;;;;;;;;;;;;;5041565;28;20625;-77
2022/04/22 15:46:24;;;;;;;3.42;3.17;;;;;;;;;;5042601;28;20910;-78
2022/04/22 15:48:52;;;;;;;3.10;2.90;;;;;;;;;;5046024;28;20071;-78
2022/04/22 15:51:23;;;;;;;3.28;3.08;;;;;;;;;;5027559;28;20394;-78
2022/04/22 15:53:52;;;;;;;3.30;3.10;;;;;;;;;;5047844;28;20048;-77
2022/04/22 15:56:20;;;;;;;3.08;2.88;;;;;;;;;;5043569;28;20062;-76
2022/04/22 15:58:48;;;;;;;3.33;3.10;;;;;;;;;;5045992;28;20036;-77
2022/04/22 16:01:16;;;;;;;2.95;2.85;;;;;;;;;;5043257;28;20157;-76
2022/04/22 16:03:48;;;;;;;3.22;3.10;;;;;;;;;;5042616;28;20124;-76
2022/04/22 16:06:20;;;;;;;3.13;2.90;;;;;;;;;;5047282;28;20041;-77
2022/04/22 16:08:48;;;;;;;2.78;2.67;;;;;;;;;;5024976;28;20039;-77
2022/04/22 16:16:48;;;;;;;3.08;2.88;;;;;;;;;;5042629;28;20043;-76
2022/04/22 16:19:16;;;;;;;3.65;3.45;;;;;;;;;;5046779;28;20143;-76
2022/04/22 16:21:43;;;;;;;3.53;2.78;;;;;;;;;;5047137;28;20102;-76
2022/04/22 16:24:11;;;;;;;3.50;3.20;;;;;;;;;;5043104;28;20451;-76
2022/04/22 16:26:39;;;;;;;4.20;4.00;;;;;;;;;;5026174;28;20587;-77
2022/04/22 16:29:06;;;;;;;4.22;3.85;;;;;;;;;;5025360;28;21295;-77
2022/04/22 16:31:36;;;;;;;3.72;3.53;;;;;;;;;;5042643;28;20041;-77